createdAt,value
2017-05-25T00:01:54.248Z,64.50
2017-05-25T00:04:22.533Z,63.60
2017-05-25T00:06:50.820Z,63.60
2017-05-25T00:09:19.455Z,64.20
2017-05-25T00:11:47.740Z,63.70
2017-05-25T00:14:16.040Z,63.90
2017-05-25T00:16:44.633Z,64.60
2017-05-25T00:19:12.972Z,63.70
2017-05-25T00:21:41.260Z,64.00
2017-05-25T00:24:09.929Z,64.20
2017-05-25T00:26:38.291Z,64.60
2017-05-25T00:29:06.567Z,64.20
2017-05-25T00:31:35.222Z,64.20
2017-05-25T00:34:03.495Z,63.60
2017-05-25T00:36:31.779Z,63.90
2017-05-25T00:39:00.442Z,63.90
2017-05-25T00:41:28.718Z,66.00
2017-05-25T00:43:57.012Z,65.40
2017-05-25T00:46:25.579Z,64.50
2017-05-25T00:48:53.968Z,63.90
2017-05-25T00:51:22.248Z,63.70
2017-05-25T00:53:50.899Z,63.80
2017-05-25T00:56:19.264Z,63.80
2017-05-25T00:58:47.545Z,64.50
2017-05-25T01:01:16.112Z,63.60
2017-05-25T01:03:44.407Z,64.90
2017-05-25T01:06:12.696Z,63.80
2017-05-25T01:08:41.491Z,64.50
2017-05-25T01:11:09.781Z,64.50
2017-05-25T01:13:38.063Z,65.70
2017-05-25T01:16:06.884Z,65.30
2017-05-25T01:18:35.169Z,64.90
2017-05-25T01:21:03.443Z,65.70
2017-05-25T01:23:32.585Z,65.00
2017-05-25T01:26:00.871Z,65.40
2017-05-25T01:28:29.200Z,65.20
2017-05-25T01:30:57.982Z,66.00
2017-05-25T01:33:26.449Z,66.10
2017-05-25T01:35:54.723Z,65.60
2017-05-25T01:38:23.482Z,65.70
2017-05-25T01:40:51.770Z,65.90
2017-05-25T01:43:20.051Z,66.00
2017-05-25T01:45:48.623Z,65.70
2017-05-25T01:48:16.907Z,66.40
2017-05-25T01:50:45.183Z,66.00
2017-05-25T01:53:13.757Z,65.90
2017-05-25T01:55:42.036Z,66.20
2017-05-25T01:58:10.309Z,66.40
2017-05-25T02:00:38.955Z,66.30
2017-05-25T02:03:07.232Z,66.50
2017-05-25T02:05:35.508Z,66.30
2017-05-25T02:08:04.087Z,66.70
2017-05-25T02:10:32.363Z,67.20
2017-05-25T02:13:00.631Z,68.20
2017-05-25T02:15:29.232Z,67.20
2017-05-25T02:17:57.536Z,67.80
2017-05-25T02:20:25.827Z,67.80
2017-05-25T02:22:54.526Z,67.50
2017-05-25T02:25:22.799Z,67.40
2017-05-25T02:27:51.083Z,67.40
2017-05-25T02:30:19.719Z,67.30
2017-05-25T02:32:47.999Z,67.20
2017-05-25T02:35:16.283Z,67.30
2017-05-25T02:37:45.113Z,67.00
2017-05-25T02:40:13.401Z,66.90
2017-05-25T02:42:41.679Z,67.00
2017-05-25T02:45:10.269Z,67.90
2017-05-25T02:47:38.546Z,67.20
2017-05-25T02:50:06.827Z,67.60
2017-05-25T02:52:35.431Z,67.70
2017-05-25T02:55:03.711Z,68.30
2017-05-25T02:57:32.118Z,68.40
2017-05-25T03:00:00.786Z,68.60
2017-05-25T03:02:29.073Z,68.10
2017-05-25T03:04:57.374Z,68.50
2017-05-25T03:07:26.186Z,68.30
2017-05-25T03:09:54.464Z,68.50
2017-05-25T03:12:22.759Z,69.30
2017-05-25T03:14:51.381Z,68.90
2017-05-25T03:17:19.667Z,68.90
2017-05-25T03:19:48.000Z,68.60
2017-05-25T03:22:16.670Z,68.70
2017-05-25T03:24:44.948Z,69.00
2017-05-25T03:27:13.226Z,69.10
2017-05-25T03:29:41.817Z,68.70
2017-05-25T03:32:10.093Z,68.90
2017-05-25T03:34:38.369Z,69.20
2017-05-25T03:37:06.946Z,69.20
2017-05-25T03:39:35.226Z,69.30
2017-05-25T03:42:03.503Z,69.50
2017-05-25T03:44:32.136Z,69.40
2017-05-25T03:47:00.423Z,69.50
2017-05-25T03:49:28.716Z,69.70
2017-05-25T03:51:57.323Z,69.50
2017-05-25T03:54:25.702Z,69.30
2017-05-25T03:56:53.983Z,69.10
2017-05-25T03:59:22.587Z,69.40
2017-05-25T04:01:50.859Z,70.40
2017-05-25T04:04:19.250Z,69.20
2017-05-25T04:06:47.825Z,69.40
2017-05-25T04:09:16.119Z,68.90
2017-05-25T04:11:44.411Z,69.30
2017-05-25T04:14:12.993Z,68.60
2017-05-25T04:16:41.281Z,68.40
2017-05-25T04:19:09.631Z,68.60
2017-05-25T04:21:38.302Z,68.10
2017-05-25T04:24:06.655Z,68.50
2017-05-25T04:26:35.037Z,69.30
2017-05-25T04:29:03.805Z,68.70
2017-05-25T04:31:32.077Z,68.50
2017-05-25T04:34:00.351Z,68.70
2017-05-25T04:36:28.989Z,68.20
2017-05-25T04:38:57.283Z,68.00
2017-05-25T04:41:25.582Z,67.30
2017-05-25T04:43:54.169Z,67.70
2017-05-25T04:46:22.444Z,68.30
2017-05-25T04:48:50.744Z,68.30
2017-05-25T04:51:19.309Z,68.20
2017-05-25T04:53:47.579Z,67.90
2017-05-25T04:56:15.854Z,67.60
2017-05-25T04:58:44.463Z,67.60
2017-05-25T05:01:12.736Z,67.30
2017-05-25T05:03:41.014Z,67.30
2017-05-25T05:06:09.597Z,67.30
2017-05-25T05:08:37.908Z,67.20
2017-05-25T05:11:06.200Z,67.30
2017-05-25T05:13:34.763Z,67.60
2017-05-25T05:16:03.041Z,67.10
2017-05-25T05:18:31.315Z,66.50
2017-05-25T05:21:00.040Z,66.20
2017-05-25T05:23:28.320Z,65.70
2017-05-25T05:25:56.607Z,65.40
2017-05-25T05:28:25.435Z,65.30
2017-05-25T05:30:53.716Z,65.20
2017-05-25T05:33:22.012Z,65.20
2017-05-25T05:35:50.649Z,65.00
2017-05-25T05:38:18.936Z,64.40
2017-05-25T05:40:47.212Z,64.90
2017-05-25T05:43:15.918Z,64.80
2017-05-25T05:45:44.199Z,63.60
2017-05-25T05:48:12.479Z,64.10
2017-05-25T05:50:41.031Z,63.50
2017-05-25T05:53:09.470Z,62.80
2017-05-25T05:55:37.753Z,61.80
2017-05-25T05:58:06.503Z,61.70
2017-05-25T06:00:34.789Z,62.80
2017-05-25T06:03:03.079Z,61.50
2017-05-25T06:05:31.669Z,61.30
2017-05-25T06:08:00.057Z,60.90
2017-05-25T06:10:28.411Z,60.50
2017-05-25T06:12:57.093Z,60.50
2017-05-25T06:15:25.362Z,60.20
2017-05-25T06:17:53.639Z,60.60
2017-05-25T06:20:22.389Z,60.90
2017-05-25T06:22:50.663Z,61.00
2017-05-25T06:25:18.961Z,60.20
2017-05-25T06:27:47.567Z,59.80
2017-05-25T06:30:15.839Z,60.50
2017-05-25T06:32:44.120Z,60.90
2017-05-25T06:35:12.759Z,59.00
2017-05-25T06:37:41.040Z,59.10
2017-05-25T06:40:09.331Z,59.10
2017-05-25T06:42:37.900Z,58.50
2017-05-25T06:45:06.220Z,58.80
2017-05-25T06:47:34.510Z,59.20
2017-05-25T06:50:03.064Z,58.90
2017-05-25T06:52:31.351Z,58.50
2017-05-25T06:54:59.623Z,58.30
2017-05-25T06:57:28.239Z,57.60
2017-05-25T06:59:56.570Z,57.20
2017-05-25T07:02:24.862Z,57.70
2017-05-25T07:04:53.636Z,57.60
2017-05-25T07:07:21.916Z,56.70
2017-05-25T07:09:50.197Z,56.20
2017-05-25T07:12:18.823Z,55.90
2017-05-25T07:14:47.118Z,55.70
2017-05-25T07:17:15.418Z,55.60
2017-05-25T07:19:44.015Z,54.90
2017-05-25T07:22:12.290Z,54.40
2017-05-25T07:24:40.554Z,54.60
2017-05-25T07:27:09.310Z,54.80
2017-05-25T07:29:37.595Z,54.30
2017-05-25T07:32:05.887Z,53.70
2017-05-25T07:34:34.471Z,54.00
2017-05-25T07:37:02.743Z,54.40
2017-05-25T07:39:31.031Z,54.30
2017-05-25T07:41:59.687Z,53.60
2017-05-25T07:44:28.210Z,52.80
2017-05-25T07:46:56.482Z,53.10
2017-05-25T07:49:25.039Z,53.80
2017-05-25T07:51:53.323Z,53.20
2017-05-25T07:54:21.612Z,52.00
2017-05-25T07:56:50.199Z,52.30
2017-05-25T07:59:18.613Z,51.20
2017-05-25T08:01:46.907Z,51.10
2017-05-25T08:04:15.515Z,49.70
2017-05-25T08:06:44.734Z,50.10
2017-05-25T08:09:13.015Z,50.00
2017-05-25T08:11:41.678Z,49.10
2017-05-25T08:14:09.966Z,48.90
2017-05-25T08:16:38.249Z,49.40
2017-05-25T08:19:06.876Z,49.00
2017-05-25T08:21:35.151Z,48.50
2017-05-25T08:24:03.414Z,48.40
2017-05-25T08:26:32.077Z,47.50
2017-05-25T08:29:00.377Z,46.90
2017-05-25T08:31:28.668Z,47.20
2017-05-25T08:33:57.266Z,46.30
2017-05-25T08:36:25.539Z,46.70
2017-05-25T08:38:53.828Z,46.80
2017-05-25T08:41:22.457Z,46.20
2017-05-25T08:43:50.732Z,45.00
2017-05-25T08:46:19.005Z,45.10
2017-05-25T08:48:47.745Z,45.10
2017-05-25T08:51:16.019Z,45.50
2017-05-25T08:53:44.291Z,45.30
2017-05-25T08:56:12.936Z,45.50
2017-05-25T08:58:41.256Z,44.90
2017-05-25T09:01:09.536Z,43.70
2017-05-25T09:03:38.103Z,42.20
2017-05-25T09:06:06.401Z,42.10
2017-05-25T09:08:34.757Z,41.90
2017-05-25T09:11:03.419Z,41.80
2017-05-25T09:13:32.256Z,41.90
2017-05-25T09:16:00.526Z,41.30
2017-05-25T09:18:29.126Z,41.10
2017-05-25T09:23:26.264Z,39.70
2017-05-25T09:25:54.937Z,40.10
2017-05-25T09:28:23.235Z,40.70
2017-05-25T09:30:51.526Z,40.30
2017-05-25T09:33:20.115Z,39.70
2017-05-25T09:35:48.411Z,39.30
2017-05-25T09:38:16.692Z,39.20
2017-05-25T09:40:45.325Z,40.10
2017-05-25T09:43:13.608Z,40.50
2017-05-25T09:45:41.906Z,39.00
2017-05-25T09:48:10.607Z,38.90
2017-05-25T09:50:38.896Z,38.40
2017-05-25T09:53:07.167Z,39.10
2017-05-25T09:55:35.800Z,38.40
2017-05-25T09:58:04.083Z,36.90
2017-05-25T10:00:32.383Z,37.10
2017-05-25T10:03:01.023Z,36.10
2017-05-25T10:05:29.303Z,36.20
2017-05-25T10:07:57.592Z,37.10
2017-05-25T10:10:26.203Z,37.00
2017-05-25T10:12:54.492Z,36.90
2017-05-25T10:15:22.779Z,37.40
2017-05-25T10:17:51.459Z,37.80
2017-05-25T10:20:19.739Z,38.20
2017-05-25T10:22:48.015Z,38.60
2017-05-25T10:25:16.659Z,39.50
2017-05-25T10:27:44.934Z,37.20
2017-05-25T10:30:13.209Z,37.80
2017-05-25T10:32:41.852Z,38.80
2017-05-25T10:35:10.136Z,38.80
2017-05-25T10:37:38.412Z,39.40
2017-05-25T10:40:07.031Z,39.40
2017-05-25T10:42:35.305Z,38.80
2017-05-25T10:45:03.622Z,39.10
2017-05-25T10:47:32.235Z,39.20
2017-05-25T10:50:01.417Z,39.50
2017-05-25T10:52:29.691Z,39.70
2017-05-25T10:54:58.362Z,39.50
2017-05-25T10:57:26.639Z,39.10
2017-05-25T10:59:54.915Z,39.40
2017-05-25T11:02:23.551Z,40.00
2017-05-25T11:04:51.831Z,40.10
2017-05-25T11:07:20.124Z,40.20
2017-05-25T11:09:48.836Z,38.50
2017-05-25T11:12:17.124Z,38.80
2017-05-25T11:14:45.409Z,39.20
2017-05-25T11:17:14.030Z,39.90
2017-05-25T11:19:42.329Z,40.00
2017-05-25T11:22:10.610Z,40.70
2017-05-25T11:24:39.208Z,39.90
2017-05-25T11:27:07.487Z,40.00
2017-05-25T11:29:35.758Z,40.60
2017-05-25T11:32:04.392Z,41.00
2017-05-25T11:34:32.668Z,40.80
2017-05-25T11:37:00.944Z,41.10
2017-05-25T11:39:29.606Z,41.90
2017-05-25T11:41:57.879Z,41.30
2017-05-25T11:44:26.158Z,41.00
2017-05-25T11:46:54.779Z,41.60
2017-05-25T11:49:23.051Z,42.00
2017-05-25T11:51:51.335Z,42.70
2017-05-25T11:54:19.989Z,42.40
2017-05-25T11:56:48.279Z,42.70
2017-05-25T11:59:16.559Z,42.40
2017-05-25T12:01:45.277Z,43.00
2017-05-25T12:04:13.557Z,43.30
2017-05-25T12:06:41.839Z,43.60
2017-05-25T12:09:10.458Z,43.90
2017-05-25T12:11:38.727Z,43.70
2017-05-25T12:14:07.015Z,44.00
2017-05-25T12:16:35.662Z,43.60
2017-05-25T12:19:03.958Z,43.40
2017-05-25T12:21:32.234Z,43.50
2017-05-25T12:24:00.845Z,43.40
2017-05-25T12:26:29.136Z,43.70
2017-05-25T12:28:57.413Z,44.00
2017-05-25T12:31:25.983Z,44.20
2017-05-25T12:33:54.267Z,44.70
2017-05-25T12:36:22.543Z,44.30
2017-05-25T12:38:51.131Z,44.40
2017-05-25T12:41:19.412Z,43.80
2017-05-25T12:43:47.718Z,43.00
2017-05-25T12:46:16.331Z,42.30
2017-05-25T12:48:44.604Z,42.50
2017-05-25T12:51:12.883Z,42.10
2017-05-25T12:53:41.508Z,42.40
2017-05-25T12:56:09.779Z,43.00
2017-05-25T12:58:38.138Z,43.40
2017-05-25T13:01:06.907Z,43.80
2017-05-25T13:03:35.188Z,43.30
2017-05-25T13:06:03.468Z,43.00
2017-05-25T13:08:32.097Z,43.60
2017-05-25T13:11:00.377Z,43.00
2017-05-25T13:13:28.659Z,41.50
2017-05-25T13:15:57.291Z,41.70
2017-05-25T13:18:25.583Z,42.20
2017-05-25T13:20:53.868Z,41.00
2017-05-25T13:23:22.487Z,41.10
2017-05-25T13:25:50.811Z,41.70
2017-05-25T13:28:19.092Z,42.00
2017-05-25T13:30:47.660Z,42.40
2017-05-25T13:33:15.951Z,42.90
2017-05-25T13:35:44.234Z,42.80
2017-05-25T13:38:12.967Z,42.60
2017-05-25T13:40:41.284Z,42.30
2017-05-25T13:43:09.562Z,42.20
2017-05-25T13:45:38.148Z,42.00
2017-05-25T13:48:06.424Z,41.30
2017-05-25T13:50:34.700Z,41.00
2017-05-25T13:53:03.250Z,41.00
2017-05-25T13:55:31.523Z,40.70
2017-05-25T13:57:59.796Z,40.40
2017-05-25T14:00:28.432Z,41.00
2017-05-25T14:02:56.720Z,41.20
2017-05-25T14:05:24.987Z,41.20
2017-05-25T14:07:53.635Z,41.20
2017-05-25T14:10:21.927Z,40.30
2017-05-25T14:12:50.203Z,40.80
2017-05-25T14:15:18.823Z,41.30
2017-05-25T14:17:47.095Z,41.60
2017-05-25T14:20:15.369Z,40.90
2017-05-25T14:22:44.017Z,41.30
2017-05-25T14:25:12.317Z,41.30
2017-05-25T14:27:40.607Z,41.30
2017-05-25T14:30:09.180Z,41.60
2017-05-25T14:32:37.471Z,42.00
2017-05-25T14:35:05.772Z,42.10
2017-05-25T14:37:34.736Z,42.00
2017-05-25T14:40:03.063Z,41.70
2017-05-25T14:42:31.365Z,41.90
2017-05-25T14:45:00.096Z,41.70
2017-05-25T14:47:28.404Z,41.80
2017-05-25T14:49:56.724Z,43.10
2017-05-25T14:52:25.299Z,42.30
2017-05-25T14:54:53.588Z,42.70
2017-05-25T14:57:21.879Z,43.20
2017-05-25T14:59:50.520Z,42.80
2017-05-25T15:02:18.811Z,43.00
2017-05-25T15:04:47.103Z,43.80
2017-05-25T15:07:15.671Z,42.70
2017-05-25T15:09:43.968Z,42.80
2017-05-25T15:12:12.268Z,42.80
2017-05-25T15:14:40.968Z,42.60
2017-05-25T15:17:09.256Z,42.00
2017-05-25T15:19:37.543Z,42.60
2017-05-25T15:22:06.155Z,42.20
2017-05-25T15:24:34.423Z,42.70
2017-05-25T15:27:02.782Z,42.30
2017-05-25T15:29:31.451Z,42.20
2017-05-25T15:31:59.759Z,42.70
2017-05-25T15:34:28.044Z,43.50
2017-05-25T15:36:56.637Z,43.60
2017-05-25T15:39:24.923Z,43.70
2017-05-25T15:41:53.208Z,43.10
2017-05-25T15:44:21.825Z,42.70
2017-05-25T15:46:50.107Z,42.80
2017-05-25T15:49:18.385Z,42.50
2017-05-25T15:51:46.946Z,42.30
2017-05-25T15:54:15.215Z,42.00
2017-05-25T15:56:43.487Z,42.70
2017-05-25T15:59:12.215Z,42.90
2017-05-25T16:01:40.488Z,43.10
2017-05-25T16:04:08.763Z,43.30
2017-05-25T16:06:37.419Z,43.80
2017-05-25T16:09:05.700Z,44.20
2017-05-25T16:11:33.975Z,44.80
2017-05-25T16:14:02.595Z,45.00
2017-05-25T16:16:31.041Z,44.90
2017-05-25T16:18:59.327Z,44.90
2017-05-25T16:21:27.899Z,44.70
2017-05-25T16:23:56.178Z,45.10
2017-05-25T16:26:24.463Z,45.60
2017-05-25T16:28:53.080Z,44.70
2017-05-25T16:31:21.377Z,44.70
2017-05-25T16:33:49.643Z,44.40
2017-05-25T16:36:17.527Z,44.40
2017-05-25T16:38:45.919Z,44.10
2017-05-25T16:41:14.208Z,43.90
2017-05-25T16:43:42.779Z,44.10
2017-05-25T16:46:11.069Z,43.90
2017-05-25T16:48:39.359Z,44.10
2017-05-25T16:51:08.032Z,44.30
2017-05-25T16:53:36.305Z,44.20
2017-05-25T16:56:04.587Z,44.40
2017-05-25T16:58:33.219Z,44.80
2017-05-25T17:01:01.495Z,45.30
2017-05-25T17:03:29.007Z,45.20
2017-05-25T17:05:57.567Z,44.40
2017-05-25T17:08:25.870Z,43.80
2017-05-25T17:10:54.211Z,44.10
2017-05-25T17:13:22.813Z,43.80
2017-05-25T17:15:51.171Z,43.10
2017-05-25T17:18:18.717Z,43.10
2017-05-25T17:20:47.389Z,43.50
2017-05-25T17:23:15.696Z,44.40
2017-05-25T17:25:44.020Z,44.10
2017-05-25T17:28:12.715Z,43.80
2017-05-25T17:30:41.301Z,43.70
2017-05-25T17:33:09.713Z,44.00
2017-05-25T17:35:38.300Z,43.90
2017-05-25T17:38:06.652Z,43.20
2017-05-25T17:40:35.006Z,43.20
2017-05-25T17:43:03.679Z,43.40
2017-05-25T17:45:31.995Z,44.00
2017-05-25T17:48:00.307Z,43.90
2017-05-25T17:50:28.970Z,44.60
2017-05-25T17:52:57.325Z,44.40
2017-05-25T17:55:25.623Z,45.10
2017-05-25T17:57:54.277Z,44.60
2017-05-25T18:00:22.572Z,44.70
2017-05-25T18:02:50.879Z,45.60
2017-05-25T18:05:19.544Z,45.50
2017-05-25T18:07:47.840Z,45.00
2017-05-25T18:10:16.120Z,45.00
2017-05-25T18:12:44.744Z,45.10
2017-05-25T18:15:13.045Z,45.10
2017-05-25T18:17:41.335Z,45.50
2017-05-25T18:20:09.900Z,45.70
2017-05-25T18:22:38.193Z,46.10
2017-05-25T18:25:06.516Z,46.30
2017-05-25T18:27:35.119Z,46.20
2017-05-25T18:30:03.479Z,46.60
2017-05-25T18:32:31.767Z,47.00
2017-05-25T18:35:00.396Z,47.90
2017-05-25T18:37:28.679Z,47.80
2017-05-25T18:39:56.991Z,48.30
2017-05-25T18:42:25.607Z,48.70
2017-05-25T18:44:53.911Z,48.90
2017-05-25T18:47:22.225Z,48.90
2017-05-25T18:49:50.900Z,49.70
2017-05-25T18:52:19.178Z,48.90
2017-05-25T18:54:47.454Z,49.60
2017-05-25T18:57:16.011Z,49.60
2017-05-25T18:59:44.295Z,49.70
2017-05-25T19:02:12.571Z,50.00
2017-05-25T19:04:41.181Z,50.10
2017-05-25T19:07:09.469Z,50.60
2017-05-25T19:09:37.770Z,50.50
2017-05-25T19:12:06.339Z,51.10
2017-05-25T19:14:34.619Z,51.30
2017-05-25T19:17:02.916Z,51.40
2017-05-25T19:19:31.508Z,51.30
2017-05-25T19:21:59.819Z,51.50
2017-05-25T19:24:28.175Z,51.80
2017-05-25T19:26:56.534Z,51.50
2017-05-25T19:29:24.911Z,51.60
2017-05-25T19:31:53.247Z,51.70
2017-05-25T19:34:21.635Z,52.10
2017-05-25T19:36:49.899Z,52.30
2017-05-25T19:39:18.256Z,52.20
2017-05-25T19:41:46.566Z,52.40
2017-05-25T19:44:14.873Z,52.70
2017-05-25T19:46:43.271Z,52.90
2017-05-25T19:49:11.675Z,53.40
2017-05-25T19:51:39.975Z,53.40
2017-05-25T19:54:08.261Z,53.40
2017-05-25T19:56:36.576Z,53.30
2017-05-25T19:59:04.955Z,53.40
2017-05-25T20:01:33.251Z,53.50
2017-05-25T20:04:01.890Z,53.80
2017-05-25T20:06:30.171Z,53.80
2017-05-25T20:08:58.468Z,53.90
2017-05-25T20:11:27.139Z,54.10
2017-05-25T20:13:55.491Z,54.10
2017-05-25T20:16:23.876Z,54.30
2017-05-25T20:18:52.463Z,54.30
2017-05-25T20:21:20.851Z,54.00
2017-05-25T20:23:49.142Z,54.10
2017-05-25T20:26:17.922Z,54.90
2017-05-25T20:28:46.293Z,54.30
2017-05-25T20:31:14.632Z,54.80
2017-05-25T20:33:43.215Z,54.20
2017-05-25T20:36:11.509Z,54.40
2017-05-25T20:38:39.796Z,54.40
2017-05-25T20:41:07.645Z,54.30
2017-05-25T20:43:35.955Z,54.60
2017-05-25T20:46:04.258Z,55.00
2017-05-25T20:48:32.824Z,55.00
2017-05-25T20:51:01.192Z,55.70
2017-05-25T20:53:29.555Z,55.10
2017-05-25T20:55:58.212Z,55.40
2017-05-25T20:58:26.492Z,55.50
2017-05-25T21:00:54.767Z,55.70
2017-05-25T21:03:23.518Z,56.00
2017-05-25T21:05:51.807Z,56.10
2017-05-25T21:08:20.091Z,56.30
2017-05-25T21:10:48.675Z,56.10
2017-05-25T21:13:16.951Z,56.20
2017-05-25T21:15:45.331Z,56.20
2017-05-25T21:18:13.997Z,56.40
2017-05-25T21:20:42.266Z,56.50
2017-05-25T21:23:10.547Z,56.70
2017-05-25T21:25:39.189Z,56.80
2017-05-25T21:28:07.481Z,57.10
2017-05-25T21:30:35.779Z,57.20
2017-05-25T21:33:04.396Z,57.10
2017-05-25T21:35:32.678Z,57.20
2017-05-25T21:38:00.960Z,57.10
2017-05-25T21:40:29.677Z,57.40
2017-05-25T21:42:57.950Z,57.40
2017-05-25T21:45:26.239Z,57.50
2017-05-25T21:47:54.873Z,58.00
2017-05-25T21:50:23.143Z,57.80
2017-05-25T21:52:51.414Z,58.00
2017-05-25T21:55:20.149Z,57.80
2017-05-25T21:57:48.443Z,58.20
2017-05-25T22:00:16.718Z,58.20
2017-05-25T22:02:45.353Z,58.40
2017-05-25T22:05:13.636Z,58.40
2017-05-25T22:07:41.926Z,58.80
2017-05-25T22:10:10.545Z,58.90
2017-05-25T22:12:38.817Z,59.10
2017-05-25T22:15:07.095Z,59.20
2017-05-25T22:17:35.727Z,59.40
2017-05-25T22:20:04.003Z,59.40
2017-05-25T22:22:32.305Z,59.70
2017-05-25T22:25:00.927Z,59.90
2017-05-25T22:27:29.228Z,59.90
2017-05-25T22:29:57.523Z,60.20
2017-05-25T22:32:26.084Z,60.60
2017-05-25T22:34:54.373Z,61.10
2017-05-25T22:37:22.664Z,61.00
2017-05-25T22:39:51.412Z,61.50
2017-05-25T22:42:19.683Z,61.80
2017-05-25T22:44:47.962Z,61.70
2017-05-25T22:47:16.595Z,62.30
2017-05-25T22:49:44.964Z,62.20
2017-05-25T22:52:13.345Z,62.50
2017-05-25T22:54:42.102Z,62.30
2017-05-25T22:57:10.389Z,63.60
2017-05-25T22:59:38.679Z,62.80
2017-05-25T23:02:07.307Z,63.00
2017-05-25T23:04:35.575Z,63.00
2017-05-25T23:07:03.879Z,64.10
2017-05-25T23:09:32.487Z,63.90
2017-05-25T23:12:00.841Z,64.20
2017-05-25T23:14:29.210Z,64.70
2017-05-25T23:16:57.795Z,64.70
2017-05-25T23:19:26.135Z,64.60
2017-05-25T23:21:54.419Z,65.20
2017-05-25T23:24:23.064Z,65.00
2017-05-25T23:26:51.348Z,65.40
2017-05-25T23:29:19.622Z,66.00
2017-05-25T23:31:48.261Z,66.00
2017-05-25T23:34:16.728Z,66.30
2017-05-25T23:36:45.079Z,66.20
2017-05-25T23:39:13.643Z,66.30
2017-05-25T23:41:41.927Z,66.30
2017-05-25T23:44:10.213Z,66.50
2017-05-25T23:46:38.843Z,66.80
2017-05-25T23:49:07.119Z,66.80
2017-05-25T23:51:35.479Z,67.20
2017-05-25T23:54:04.163Z,67.30
2017-05-25T23:56:32.607Z,67.40
2017-05-25T23:59:00.963Z,68.10
